sensor_id;sensor_type;location;lat;lon;timestamp;temperature;humidity
36856;DHT22;22788;51.434;6.786;2022-09-29T00:00:24;12.30;91.00
36856;DHT22;22788;51.434;6.786;2022-09-29T00:02:50;12.40;91.10
36856;DHT22;22788;51.434;6.786;2022-09-29T00:05:16;12.40;91.00
36856;DHT22;22788;51.434;6.786;2022-09-29T00:07:43;12.40;91.00
36856;DHT22;22788;51.434;6.786;2022-09-29T00:10:09;12.40;91.00
36856;DHT22;22788;51.434;6.786;2022-09-29T00:12:36;12.30;91.00
36856;DHT22;22788;51.434;6.786;2022-09-29T00:15:03;12.30;91.00
36856;DHT22;22788;51.434;6.786;2022-09-29T00:17:29;12.30;91.00
36856;DHT22;22788;51.434;6.786;2022-09-29T00:19:55;12.30;91.00
36856;DHT22;22788;51.434;6.786;2022-09-29T00:22:21;12.30;90.90
36856;DHT22;22788;51.434;6.786;2022-09-29T00:24:49;12.30;90.90
36856;DHT22;22788;51.434;6.786;2022-09-29T00:27:15;12.20;91.00
36856;DHT22;22788;51.434;6.786;2022-09-29T00:29:41;12.40;91.00
36856;DHT22;22788;51.434;6.786;2022-09-29T00:32:07;12.40;90.90
36856;DHT22;22788;51.434;6.786;2022-09-29T00:34:34;12.40;90.90
36856;DHT22;22788;51.434;6.786;2022-09-29T00:37:00;12.40;90.90
36856;DHT22;22788;51.434;6.786;2022-09-29T00:39:26;12.30;90.90
36856;DHT22;22788;51.434;6.786;2022-09-29T00:41:53;12.30;90.90
36856;DHT22;22788;51.434;6.786;2022-09-29T00:44:56;12.30;90.90
36856;DHT22;22788;51.434;6.786;2022-09-29T00:47:24;12.30;90.90
36856;DHT22;22788;51.434;6.786;2022-09-29T00:49:53;12.30;90.90
36856;DHT22;22788;51.434;6.786;2022-09-29T00:52:25;12.30;90.80
36856;DHT22;22788;51.434;6.786;2022-09-29T00:54:54;12.30;90.80
36856;DHT22;22788;51.434;6.786;2022-09-29T00:57:26;12.30;90.80
36856;DHT22;22788;51.434;6.786;2022-09-29T00:59:55;12.30;90.80
36856;DHT22;22788;51.434;6.786;2022-09-29T01:02:23;12.30;90.90
36856;DHT22;22788;51.434;6.786;2022-09-29T01:04:50;12.30;90.90
36856;DHT22;22788;51.434;6.786;2022-09-29T01:07:19;12.30;90.90
36856;DHT22;22788;51.434;6.786;2022-09-29T01:09:45;12.30;90.90
36856;DHT22;22788;51.434;6.786;2022-09-29T01:12:12;12.20;90.90
36856;DHT22;22788;51.434;6.786;2022-09-29T01:14:40;12.30;90.90
36856;DHT22;22788;51.434;6.786;2022-09-29T01:17:06;12.30;90.80
36856;DHT22;22788;51.434;6.786;2022-09-29T01:19:40;12.20;90.80
36856;DHT22;22788;51.434;6.786;2022-09-29T01:22:19;12.20;90.80
36856;DHT22;22788;51.434;6.786;2022-09-29T01:24:55;12.20;90.80
36856;DHT22;22788;51.434;6.786;2022-09-29T01:27:50;12.20;90.80
36856;DHT22;22788;51.434;6.786;2022-09-29T01:30:38;12.20;90.90
36856;DHT22;22788;51.434;6.786;2022-09-29T01:33:17;12.20;90.80
36856;DHT22;22788;51.434;6.786;2022-09-29T01:35:52;12.20;90.80
36856;DHT22;22788;51.434;6.786;2022-09-29T01:38:32;12.20;90.80
36856;DHT22;22788;51.434;6.786;2022-09-29T01:41:06;12.20;90.80
36856;DHT22;22788;51.434;6.786;2022-09-29T01:43:39;12.20;90.80
36856;DHT22;22788;51.434;6.786;2022-09-29T01:46:13;12.20;90.80
36856;DHT22;22788;51.434;6.786;2022-09-29T01:48:44;12.20;90.80
36856;DHT22;22788;51.434;6.786;2022-09-29T01:51:14;12.20;90.80
36856;DHT22;22788;51.434;6.786;2022-09-29T01:53:45;12.20;90.90
36856;DHT22;22788;51.434;6.786;2022-09-29T01:56:15;12.10;90.80
36856;DHT22;22788;51.434;6.786;2022-09-29T01:58:48;12.20;90.80
36856;DHT22;22788;51.434;6.786;2022-09-29T02:01:20;12.20;90.80
36856;DHT22;22788;51.434;6.786;2022-09-29T02:03:51;12.10;90.80
36856;DHT22;22788;51.434;6.786;2022-09-29T02:06:22;12.10;90.80
36856;DHT22;22788;51.434;6.786;2022-09-29T02:08:52;12.10;90.90
36856;DHT22;22788;51.434;6.786;2022-09-29T02:11:18;12.10;90.80
36856;DHT22;22788;51.434;6.786;2022-09-29T02:13:48;12.10;90.80
36856;DHT22;22788;51.434;6.786;2022-09-29T02:16:18;12.30;90.80
36856;DHT22;22788;51.434;6.786;2022-09-29T02:18:50;12.20;90.70
36856;DHT22;22788;51.434;6.786;2022-09-29T02:21:18;12.20;90.70
36856;DHT22;22788;51.434;6.786;2022-09-29T02:23:44;12.20;90.70
36856;DHT22;22788;51.434;6.786;2022-09-29T02:26:10;12.20;90.90
36856;DHT22;22788;51.434;6.786;2022-09-29T02:28:37;12.10;90.70
36856;DHT22;22788;51.434;6.786;2022-09-29T02:31:04;12.10;90.70
36856;DHT22;22788;51.434;6.786;2022-09-29T02:33:32;12.10;90.70
36856;DHT22;22788;51.434;6.786;2022-09-29T02:36:10;12.10;90.70
36856;DHT22;22788;51.434;6.786;2022-09-29T02:38:42;12.10;90.70
36856;DHT22;22788;51.434;6.786;2022-09-29T02:41:15;12.10;90.70
36856;DHT22;22788;51.434;6.786;2022-09-29T02:44:03;12.10;90.60
36856;DHT22;22788;51.434;6.786;2022-09-29T02:46:42;12.10;90.70
36856;DHT22;22788;51.434;6.786;2022-09-29T02:49:29;12.10;90.60
36856;DHT22;22788;51.434;6.786;2022-09-29T02:52:00;12.10;90.60
36856;DHT22;22788;51.434;6.786;2022-09-29T02:54:36;12.10;90.70
36856;DHT22;22788;51.434;6.786;2022-09-29T02:57:13;12.10;90.70
36856;DHT22;22788;51.434;6.786;2022-09-29T02:59:46;12.10;90.60
36856;DHT22;22788;51.434;6.786;2022-09-29T03:02:14;12.10;90.60
36856;DHT22;22788;51.434;6.786;2022-09-29T03:04:41;12.10;90.60
36856;DHT22;22788;51.434;6.786;2022-09-29T03:07:07;12.10;90.60
36856;DHT22;22788;51.434;6.786;2022-09-29T03:09:33;12.10;90.50
36856;DHT22;22788;51.434;6.786;2022-09-29T03:12:00;12.10;90.60
36856;DHT22;22788;51.434;6.786;2022-09-29T03:14:26;12.10;90.60
36856;DHT22;22788;51.434;6.786;2022-09-29T03:16:52;12.10;90.60
36856;DHT22;22788;51.434;6.786;2022-09-29T03:19:18;12.10;90.60
36856;DHT22;22788;51.434;6.786;2022-09-29T03:21:45;12.10;90.50
36856;DHT22;22788;51.434;6.786;2022-09-29T03:24:11;12.10;90.50
36856;DHT22;22788;51.434;6.786;2022-09-29T03:26:37;12.10;90.50
36856;DHT22;22788;51.434;6.786;2022-09-29T03:29:03;12.10;90.60
36856;DHT22;22788;51.434;6.786;2022-09-29T03:31:29;12.10;90.50
36856;DHT22;22788;51.434;6.786;2022-09-29T03:33:55;12.00;90.60
36856;DHT22;22788;51.434;6.786;2022-09-29T03:36:21;11.90;90.70
36856;DHT22;22788;51.434;6.786;2022-09-29T03:38:49;12.00;90.70
36856;DHT22;22788;51.434;6.786;2022-09-29T03:41:15;12.00;90.70
36856;DHT22;22788;51.434;6.786;2022-09-29T03:43:41;12.00;90.70
36856;DHT22;22788;51.434;6.786;2022-09-29T03:46:07;12.00;90.60
36856;DHT22;22788;51.434;6.786;2022-09-29T03:48:33;12.00;90.60
36856;DHT22;22788;51.434;6.786;2022-09-29T03:50:59;12.00;90.50
36856;DHT22;22788;51.434;6.786;2022-09-29T03:53:25;12.00;90.60
36856;DHT22;22788;51.434;6.786;2022-09-29T03:55:53;12.00;90.50
36856;DHT22;22788;51.434;6.786;2022-09-29T03:58:19;12.00;90.60
36856;DHT22;22788;51.434;6.786;2022-09-29T04:00:46;12.00;90.60
36856;DHT22;22788;51.434;6.786;2022-09-29T04:03:13;12.00;90.50
36856;DHT22;22788;51.434;6.786;2022-09-29T04:05:39;12.00;90.50
36856;DHT22;22788;51.434;6.786;2022-09-29T04:08:05;11.90;90.60
36856;DHT22;22788;51.434;6.786;2022-09-29T04:10:33;12.00;90.50
36856;DHT22;22788;51.434;6.786;2022-09-29T04:13:00;12.00;90.50
36856;DHT22;22788;51.434;6.786;2022-09-29T04:15:26;12.00;90.40
36856;DHT22;22788;51.434;6.786;2022-09-29T04:17:52;12.00;90.40
36856;DHT22;22788;51.434;6.786;2022-09-29T04:20:18;12.00;90.40
36856;DHT22;22788;51.434;6.786;2022-09-29T04:22:44;12.00;90.40
36856;DHT22;22788;51.434;6.786;2022-09-29T04:25:10;12.00;90.40
36856;DHT22;22788;51.434;6.786;2022-09-29T04:27:36;12.00;90.40
36856;DHT22;22788;51.434;6.786;2022-09-29T04:30:05;11.90;90.50
36856;DHT22;22788;51.434;6.786;2022-09-29T04:32:32;11.90;90.40
36856;DHT22;22788;51.434;6.786;2022-09-29T04:34:58;12.00;90.40
36856;DHT22;22788;51.434;6.786;2022-09-29T04:37:24;12.00;90.40
36856;DHT22;22788;51.434;6.786;2022-09-29T04:39:50;11.90;90.40
36856;DHT22;22788;51.434;6.786;2022-09-29T04:42:16;11.90;90.40
36856;DHT22;22788;51.434;6.786;2022-09-29T04:44:42;11.90;90.40
36856;DHT22;22788;51.434;6.786;2022-09-29T04:47:09;11.90;90.40
36856;DHT22;22788;51.434;6.786;2022-09-29T04:49:36;11.90;90.40
36856;DHT22;22788;51.434;6.786;2022-09-29T04:52:02;11.90;90.30
36856;DHT22;22788;51.434;6.786;2022-09-29T04:54:29;11.90;90.20
36856;DHT22;22788;51.434;6.786;2022-09-29T04:56:56;11.90;90.40
36856;DHT22;22788;51.434;6.786;2022-09-29T04:59:22;11.90;90.30
36856;DHT22;22788;51.434;6.786;2022-09-29T05:01:48;11.90;90.30
36856;DHT22;22788;51.434;6.786;2022-09-29T05:04:15;11.90;90.30
36856;DHT22;22788;51.434;6.786;2022-09-29T05:06:41;11.90;90.40
36856;DHT22;22788;51.434;6.786;2022-09-29T05:09:08;11.90;90.40
36856;DHT22;22788;51.434;6.786;2022-09-29T05:11:34;11.90;90.30
36856;DHT22;22788;51.434;6.786;2022-09-29T05:14:00;11.90;90.30
36856;DHT22;22788;51.434;6.786;2022-09-29T05:16:26;11.80;90.40
36856;DHT22;22788;51.434;6.786;2022-09-29T05:18:52;11.80;90.50
36856;DHT22;22788;51.434;6.786;2022-09-29T05:21:19;11.80;90.40
36856;DHT22;22788;51.434;6.786;2022-09-29T05:23:45;11.80;90.50
36856;DHT22;22788;51.434;6.786;2022-09-29T05:26:12;11.70;90.50
36856;DHT22;22788;51.434;6.786;2022-09-29T05:28:42;11.70;90.40
36856;DHT22;22788;51.434;6.786;2022-09-29T05:31:09;11.70;90.50
36856;DHT22;22788;51.434;6.786;2022-09-29T05:33:36;11.70;90.50
36856;DHT22;22788;51.434;6.786;2022-09-29T05:36:04;11.80;90.50
36856;DHT22;22788;51.434;6.786;2022-09-29T05:38:31;11.80;90.40
36856;DHT22;22788;51.434;6.786;2022-09-29T05:40:58;11.80;90.30
36856;DHT22;22788;51.434;6.786;2022-09-29T05:43:28;11.70;90.40
36856;DHT22;22788;51.434;6.786;2022-09-29T05:45:58;11.70;90.40
36856;DHT22;22788;51.434;6.786;2022-09-29T05:48:24;11.70;90.50
36856;DHT22;22788;51.434;6.786;2022-09-29T05:50:50;11.70;90.50
36856;DHT22;22788;51.434;6.786;2022-09-29T05:53:16;11.70;90.70
36856;DHT22;22788;51.434;6.786;2022-09-29T05:55:44;11.70;90.50
36856;DHT22;22788;51.434;6.786;2022-09-29T05:58:10;11.70;90.40
36856;DHT22;22788;51.434;6.786;2022-09-29T06:00:36;11.70;90.40
36856;DHT22;22788;51.434;6.786;2022-09-29T06:03:02;11.80;90.30
36856;DHT22;22788;51.434;6.786;2022-09-29T06:05:28;11.80;90.20
36856;DHT22;22788;51.434;6.786;2022-09-29T06:07:54;11.70;90.30
36856;DHT22;22788;51.434;6.786;2022-09-29T06:10:20;11.80;90.20
36856;DHT22;22788;51.434;6.786;2022-09-29T06:12:48;11.80;90.30
36856;DHT22;22788;51.434;6.786;2022-09-29T06:15:14;11.80;90.20
36856;DHT22;22788;51.434;6.786;2022-09-29T06:17:40;11.80;90.30
36856;DHT22;22788;51.434;6.786;2022-09-29T06:20:07;11.70;90.30
36856;DHT22;22788;51.434;6.786;2022-09-29T06:22:33;11.70;90.20
36856;DHT22;22788;51.434;6.786;2022-09-29T06:24:59;11.70;90.30
36856;DHT22;22788;51.434;6.786;2022-09-29T06:27:25;11.70;90.20
36856;DHT22;22788;51.434;6.786;2022-09-29T06:29:52;11.70;90.20
36856;DHT22;22788;51.434;6.786;2022-09-29T06:32:18;11.70;90.30
36856;DHT22;22788;51.434;6.786;2022-09-29T06:34:44;11.70;90.40
36856;DHT22;22788;51.434;6.786;2022-09-29T06:37:10;11.70;90.30
36856;DHT22;22788;51.434;6.786;2022-09-29T06:39:38;11.70;90.30
36856;DHT22;22788;51.434;6.786;2022-09-29T06:42:04;11.70;90.30
36856;DHT22;22788;51.434;6.786;2022-09-29T06:44:30;11.70;90.30
36856;DHT22;22788;51.434;6.786;2022-09-29T06:46:58;11.70;90.30
36856;DHT22;22788;51.434;6.786;2022-09-29T06:49:24;11.70;90.30
36856;DHT22;22788;51.434;6.786;2022-09-29T06:51:51;11.70;90.30
36856;DHT22;22788;51.434;6.786;2022-09-29T06:54:18;11.70;90.30
36856;DHT22;22788;51.434;6.786;2022-09-29T06:56:46;11.70;90.30
36856;DHT22;22788;51.434;6.786;2022-09-29T06:59:12;11.60;90.40
36856;DHT22;22788;51.434;6.786;2022-09-29T07:01:38;11.60;90.30
36856;DHT22;22788;51.434;6.786;2022-09-29T07:04:05;11.70;90.40
36856;DHT22;22788;51.434;6.786;2022-09-29T07:06:31;11.70;90.40
36856;DHT22;22788;51.434;6.786;2022-09-29T07:08:58;11.60;90.30
36856;DHT22;22788;51.434;6.786;2022-09-29T07:11:24;11.70;90.40
36856;DHT22;22788;51.434;6.786;2022-09-29T07:13:51;11.70;90.40
36856;DHT22;22788;51.434;6.786;2022-09-29T07:16:18;11.70;90.40
36856;DHT22;22788;51.434;6.786;2022-09-29T07:18:44;11.60;90.40
36856;DHT22;22788;51.434;6.786;2022-09-29T07:21:12;11.60;90.40
36856;DHT22;22788;51.434;6.786;2022-09-29T07:23:39;11.60;90.50
36856;DHT22;22788;51.434;6.786;2022-09-29T07:26:06;11.60;90.50
36856;DHT22;22788;51.434;6.786;2022-09-29T07:28:33;11.60;90.60
36856;DHT22;22788;51.434;6.786;2022-09-29T07:31:00;11.60;90.60
36856;DHT22;22788;51.434;6.786;2022-09-29T07:33:26;11.60;90.60
36856;DHT22;22788;51.434;6.786;2022-09-29T07:35:53;11.60;90.50
36856;DHT22;22788;51.434;6.786;2022-09-29T07:38:21;11.60;90.80
36856;DHT22;22788;51.434;6.786;2022-09-29T07:40:47;11.60;90.60
36856;DHT22;22788;51.434;6.786;2022-09-29T07:43:13;11.60;90.70
36856;DHT22;22788;51.434;6.786;2022-09-29T07:45:45;11.60;90.70
36856;DHT22;22788;51.434;6.786;2022-09-29T07:48:11;11.60;90.70
36856;DHT22;22788;51.434;6.786;2022-09-29T07:50:37;11.60;90.70
36856;DHT22;22788;51.434;6.786;2022-09-29T07:53:03;11.60;90.60
36856;DHT22;22788;51.434;6.786;2022-09-29T07:55:30;11.70;90.50
36856;DHT22;22788;51.434;6.786;2022-09-29T07:57:57;11.60;90.80
36856;DHT22;22788;51.434;6.786;2022-09-29T08:00:23;11.60;90.80
36856;DHT22;22788;51.434;6.786;2022-09-29T08:02:49;11.60;90.90
36856;DHT22;22788;51.434;6.786;2022-09-29T08:05:15;11.60;90.80
36856;DHT22;22788;51.434;6.786;2022-09-29T08:07:41;11.60;90.80
36856;DHT22;22788;51.434;6.786;2022-09-29T08:10:07;11.60;90.70
36856;DHT22;22788;51.434;6.786;2022-09-29T08:12:35;11.60;90.70
36856;DHT22;22788;51.434;6.786;2022-09-29T08:15:01;11.60;90.80
36856;DHT22;22788;51.434;6.786;2022-09-29T08:17:27;11.60;90.80
36856;DHT22;22788;51.434;6.786;2022-09-29T08:19:53;11.60;90.80
36856;DHT22;22788;51.434;6.786;2022-09-29T08:22:19;11.50;91.00
36856;DHT22;22788;51.434;6.786;2022-09-29T08:24:45;11.50;91.00
36856;DHT22;22788;51.434;6.786;2022-09-29T08:27:11;11.50;91.20
36856;DHT22;22788;51.434;6.786;2022-09-29T08:29:38;11.50;91.30
36856;DHT22;22788;51.434;6.786;2022-09-29T08:32:04;11.50;91.10
36856;DHT22;22788;51.434;6.786;2022-09-29T08:34:30;11.50;91.10
36856;DHT22;22788;51.434;6.786;2022-09-29T08:36:56;11.50;91.00
36856;DHT22;22788;51.434;6.786;2022-09-29T08:39:22;11.60;91.00
36856;DHT22;22788;51.434;6.786;2022-09-29T08:41:52;11.50;91.10
36856;DHT22;22788;51.434;6.786;2022-09-29T08:44:22;11.50;91.10
36856;DHT22;22788;51.434;6.786;2022-09-29T08:46:52;11.40;91.40
36856;DHT22;22788;51.434;6.786;2022-09-29T08:49:23;11.50;91.30
36856;DHT22;22788;51.434;6.786;2022-09-29T08:51:55;11.50;91.30
36856;DHT22;22788;51.434;6.786;2022-09-29T08:54:26;11.60;91.00
36856;DHT22;22788;51.434;6.786;2022-09-29T08:56:55;11.60;91.00
36856;DHT22;22788;51.434;6.786;2022-09-29T08:59:21;11.60;90.90
36856;DHT22;22788;51.434;6.786;2022-09-29T09:01:57;11.60;90.90
36856;DHT22;22788;51.434;6.786;2022-09-29T09:07:21;11.60;91.20
36856;DHT22;22788;51.434;6.786;2022-09-29T09:09:58;11.60;91.00
36856;DHT22;22788;51.434;6.786;2022-09-29T09:12:36;11.60;91.00
36856;DHT22;22788;51.434;6.786;2022-09-29T09:15:26;11.70;91.00
36856;DHT22;22788;51.434;6.786;2022-09-29T09:20:52;11.70;91.00
36856;DHT22;22788;51.434;6.786;2022-09-29T09:23:26;11.70;91.00
36856;DHT22;22788;51.434;6.786;2022-09-29T09:25:55;11.60;91.30
36856;DHT22;22788;51.434;6.786;2022-09-29T09:28:26;11.80;91.10
36856;DHT22;22788;51.434;6.786;2022-09-29T09:30:58;11.60;91.50
36856;DHT22;22788;51.434;6.786;2022-09-29T09:33:31;11.60;91.30
36856;DHT22;22788;51.434;6.786;2022-09-29T09:36:03;11.60;91.20
36856;DHT22;22788;51.434;6.786;2022-09-29T09:38:41;11.70;92.00
36856;DHT22;22788;51.434;6.786;2022-09-29T09:41:10;11.60;91.90
36856;DHT22;22788;51.434;6.786;2022-09-29T09:43:40;11.60;91.20
36856;DHT22;22788;51.434;6.786;2022-09-29T09:46:12;11.60;91.80
36856;DHT22;22788;51.434;6.786;2022-09-29T09:48:43;11.60;91.40
36856;DHT22;22788;51.434;6.786;2022-09-29T09:51:28;11.60;91.40
36856;DHT22;22788;51.434;6.786;2022-09-29T09:53:57;11.60;92.40
36856;DHT22;22788;51.434;6.786;2022-09-29T09:56:40;11.60;91.90
36856;DHT22;22788;51.434;6.786;2022-09-29T09:59:25;11.60;93.20
36856;DHT22;22788;51.434;6.786;2022-09-29T10:01:53;11.60;91.80
36856;DHT22;22788;51.434;6.786;2022-09-29T10:04:21;11.70;91.90
36856;DHT22;22788;51.434;6.786;2022-09-29T10:06:47;11.80;91.20
36856;DHT22;22788;51.434;6.786;2022-09-29T10:09:14;11.80;91.10
36856;DHT22;22788;51.434;6.786;2022-09-29T10:11:41;11.90;91.10
36856;DHT22;22788;51.434;6.786;2022-09-29T10:14:12;11.80;91.80
36856;DHT22;22788;51.434;6.786;2022-09-29T10:16:43;11.90;91.10
36856;DHT22;22788;51.434;6.786;2022-09-29T10:19:10;11.90;90.90
36856;DHT22;22788;51.434;6.786;2022-09-29T10:21:40;11.90;91.40
36856;DHT22;22788;51.434;6.786;2022-09-29T10:24:20;11.90;91.20
36856;DHT22;22788;51.434;6.786;2022-09-29T10:26:48;11.90;91.80
36856;DHT22;22788;51.434;6.786;2022-09-29T10:29:22;11.90;90.80
36856;DHT22;22788;51.434;6.786;2022-09-29T10:31:58;11.90;91.10
36856;DHT22;22788;51.434;6.786;2022-09-29T10:34:25;12.00;91.30
36856;DHT22;22788;51.434;6.786;2022-09-29T10:36:55;12.10;90.90
36856;DHT22;22788;51.434;6.786;2022-09-29T10:39:30;12.00;90.20
36856;DHT22;22788;51.434;6.786;2022-09-29T10:41:56;12.00;90.30
36856;DHT22;22788;51.434;6.786;2022-09-29T10:44:22;12.00;90.20
36856;DHT22;22788;51.434;6.786;2022-09-29T10:46:52;12.10;90.70
36856;DHT22;22788;51.434;6.786;2022-09-29T10:49:20;12.10;90.60
36856;DHT22;22788;51.434;6.786;2022-09-29T10:51:53;12.00;90.60
36856;DHT22;22788;51.434;6.786;2022-09-29T10:54:22;12.10;90.70
36856;DHT22;22788;51.434;6.786;2022-09-29T10:56:48;12.10;90.60
36856;DHT22;22788;51.434;6.786;2022-09-29T10:59:16;12.00;90.70
36856;DHT22;22788;51.434;6.786;2022-09-29T11:01:44;12.00;90.80
36856;DHT22;22788;51.434;6.786;2022-09-29T11:04:16;12.10;90.70
36856;DHT22;22788;51.434;6.786;2022-09-29T11:06:43;12.10;90.70
36856;DHT22;22788;51.434;6.786;2022-09-29T11:09:27;12.00;90.60
36856;DHT22;22788;51.434;6.786;2022-09-29T11:11:55;12.10;90.80
36856;DHT22;22788;51.434;6.786;2022-09-29T11:14:27;12.10;90.70
36856;DHT22;22788;51.434;6.786;2022-09-29T11:16:55;12.10;90.60
36856;DHT22;22788;51.434;6.786;2022-09-29T11:19:21;12.10;90.60
36856;DHT22;22788;51.434;6.786;2022-09-29T11:22:06;12.20;90.60
36856;DHT22;22788;51.434;6.786;2022-09-29T11:25:12;12.20;90.70
36856;DHT22;22788;51.434;6.786;2022-09-29T11:27:48;12.20;90.60
36856;DHT22;22788;51.434;6.786;2022-09-29T11:30:19;12.10;90.70
36856;DHT22;22788;51.434;6.786;2022-09-29T11:32:59;12.10;90.80
36856;DHT22;22788;51.434;6.786;2022-09-29T11:35:37;12.10;90.70
36856;DHT22;22788;51.434;6.786;2022-09-29T11:38:30;12.20;90.70
36856;DHT22;22788;51.434;6.786;2022-09-29T11:41:13;12.20;90.70
36856;DHT22;22788;51.434;6.786;2022-09-29T11:43:43;12.20;90.60
36856;DHT22;22788;51.434;6.786;2022-09-29T11:46:40;12.10;90.70
36856;DHT22;22788;51.434;6.786;2022-09-29T11:49:34;12.20;90.70
36856;DHT22;22788;51.434;6.786;2022-09-29T11:52:31;12.10;90.80
36856;DHT22;22788;51.434;6.786;2022-09-29T11:55:14;12.10;90.80
36856;DHT22;22788;51.434;6.786;2022-09-29T11:57:55;12.10;90.80
36856;DHT22;22788;51.434;6.786;2022-09-29T12:00:36;12.10;90.80
36856;DHT22;22788;51.434;6.786;2022-09-29T12:03:21;12.10;90.80
36856;DHT22;22788;51.434;6.786;2022-09-29T12:05:56;12.20;90.80
36856;DHT22;22788;51.434;6.786;2022-09-29T12:08:33;12.20;90.70
36856;DHT22;22788;51.434;6.786;2022-09-29T12:11:06;12.20;90.70
36856;DHT22;22788;51.434;6.786;2022-09-29T12:13:44;12.20;90.80
36856;DHT22;22788;51.434;6.786;2022-09-29T12:16:16;12.20;90.70
36856;DHT22;22788;51.434;6.786;2022-09-29T12:18:47;12.20;90.60
36856;DHT22;22788;51.434;6.786;2022-09-29T12:21:19;12.30;90.60
36856;DHT22;22788;51.434;6.786;2022-09-29T12:23:48;12.30;90.50
36856;DHT22;22788;51.434;6.786;2022-09-29T12:26:17;12.30;90.50
36856;DHT22;22788;51.434;6.786;2022-09-29T12:28:50;12.30;90.50
36856;DHT22;22788;51.434;6.786;2022-09-29T12:31:22;12.20;90.50
36856;DHT22;22788;51.434;6.786;2022-09-29T12:33:52;12.30;90.40
36856;DHT22;22788;51.434;6.786;2022-09-29T12:36:31;12.30;90.40
36856;DHT22;22788;51.434;6.786;2022-09-29T12:39:02;12.30;90.40
36856;DHT22;22788;51.434;6.786;2022-09-29T12:41:34;12.30;90.30
36856;DHT22;22788;51.434;6.786;2022-09-29T12:44:11;12.30;90.30
36856;DHT22;22788;51.434;6.786;2022-09-29T12:46:44;12.40;90.30
36856;DHT22;22788;51.434;6.786;2022-09-29T12:49:17;12.40;90.30
36856;DHT22;22788;51.434;6.786;2022-09-29T12:51:48;12.40;90.40
36856;DHT22;22788;51.434;6.786;2022-09-29T12:54:19;12.40;90.50
36856;DHT22;22788;51.434;6.786;2022-09-29T12:56:52;12.40;90.80
36856;DHT22;22788;51.434;6.786;2022-09-29T12:59:32;12.40;90.60
36856;DHT22;22788;51.434;6.786;2022-09-29T13:02:04;12.40;90.60
36856;DHT22;22788;51.434;6.786;2022-09-29T13:05:01;12.40;90.60
36856;DHT22;22788;51.434;6.786;2022-09-29T13:10:57;12.40;90.60
36856;DHT22;22788;51.434;6.786;2022-09-29T13:13:53;12.40;90.60
36856;DHT22;22788;51.434;6.786;2022-09-29T13:16:40;12.40;90.60
36856;DHT22;22788;51.434;6.786;2022-09-29T13:19:42;12.40;90.50
36856;DHT22;22788;51.434;6.786;2022-09-29T13:22:26;12.40;90.60
36856;DHT22;22788;51.434;6.786;2022-09-29T13:25:02;12.40;90.60
36856;DHT22;22788;51.434;6.786;2022-09-29T13:27:32;12.40;90.50
36856;DHT22;22788;51.434;6.786;2022-09-29T13:30:03;12.40;90.50
36856;DHT22;22788;51.434;6.786;2022-09-29T13:32:32;12.40;90.20
36856;DHT22;22788;51.434;6.786;2022-09-29T13:35:11;12.50;90.50
36856;DHT22;22788;51.434;6.786;2022-09-29T13:37:44;12.40;90.40
36856;DHT22;22788;51.434;6.786;2022-09-29T13:40:20;12.50;90.40
36856;DHT22;22788;51.434;6.786;2022-09-29T13:42:47;12.50;90.40
36856;DHT22;22788;51.434;6.786;2022-09-29T13:45:36;12.50;90.40
36856;DHT22;22788;51.434;6.786;2022-09-29T13:48:35;12.50;90.40
36856;DHT22;22788;51.434;6.786;2022-09-29T13:51:41;12.50;90.40
36856;DHT22;22788;51.434;6.786;2022-09-29T13:57:18;12.50;90.50
36856;DHT22;22788;51.434;6.786;2022-09-29T14:00:00;12.50;90.50
36856;DHT22;22788;51.434;6.786;2022-09-29T14:02:32;12.50;90.50
36856;DHT22;22788;51.434;6.786;2022-09-29T14:05:00;12.50;90.40
36856;DHT22;22788;51.434;6.786;2022-09-29T14:07:39;12.50;90.50
36856;DHT22;22788;51.434;6.786;2022-09-29T14:10:17;12.50;90.40
36856;DHT22;22788;51.434;6.786;2022-09-29T14:12:44;12.50;90.40
36856;DHT22;22788;51.434;6.786;2022-09-29T14:15:15;12.50;90.40
36856;DHT22;22788;51.434;6.786;2022-09-29T14:17:46;12.50;90.30
36856;DHT22;22788;51.434;6.786;2022-09-29T14:20:17;12.50;89.70
36856;DHT22;22788;51.434;6.786;2022-09-29T14:22:56;12.60;90.10
36856;DHT22;22788;51.434;6.786;2022-09-29T14:25:49;12.60;86.40
36856;DHT22;22788;51.434;6.786;2022-09-29T14:28:24;12.70;87.50
36856;DHT22;22788;51.434;6.786;2022-09-29T14:30:53;12.70;89.70
36856;DHT22;22788;51.434;6.786;2022-09-29T14:33:23;12.70;89.10
36856;DHT22;22788;51.434;6.786;2022-09-29T14:36:01;12.70;84.80
36856;DHT22;22788;51.434;6.786;2022-09-29T14:38:30;12.80;80.90
36856;DHT22;22788;51.434;6.786;2022-09-29T14:41:00;12.90;89.00
36856;DHT22;22788;51.434;6.786;2022-09-29T14:43:36;12.80;89.40
36856;DHT22;22788;51.434;6.786;2022-09-29T14:46:22;12.80;87.90
36856;DHT22;22788;51.434;6.786;2022-09-29T14:49:02;12.80;88.60
36856;DHT22;22788;51.434;6.786;2022-09-29T14:51:39;12.80;88.60
36856;DHT22;22788;51.434;6.786;2022-09-29T14:54:13;12.80;84.50
36856;DHT22;22788;51.434;6.786;2022-09-29T14:56:51;12.80;89.40
36856;DHT22;22788;51.434;6.786;2022-09-29T14:59:31;12.80;89.40
36856;DHT22;22788;51.434;6.786;2022-09-29T15:02:17;12.80;89.30
36856;DHT22;22788;51.434;6.786;2022-09-29T15:04:45;12.80;89.20
36856;DHT22;22788;51.434;6.786;2022-09-29T15:07:16;12.80;83.70
36856;DHT22;22788;51.434;6.786;2022-09-29T15:09:46;12.80;89.30
36856;DHT22;22788;51.434;6.786;2022-09-29T15:12:15;12.80;90.00
36856;DHT22;22788;51.434;6.786;2022-09-29T15:14:41;12.80;89.40
36856;DHT22;22788;51.434;6.786;2022-09-29T15:17:15;12.80;89.70
36856;DHT22;22788;51.434;6.786;2022-09-29T15:19:46;12.80;81.10
36856;DHT22;22788;51.434;6.786;2022-09-29T15:22:31;12.80;79.70
36856;DHT22;22788;51.434;6.786;2022-09-29T15:25:14;12.90;86.10
36856;DHT22;22788;51.434;6.786;2022-09-29T15:27:45;13.00;84.90
36856;DHT22;22788;51.434;6.786;2022-09-29T15:30:14;13.20;89.40
36856;DHT22;22788;51.434;6.786;2022-09-29T15:32:41;13.20;88.90
36856;DHT22;22788;51.434;6.786;2022-09-29T15:35:12;13.10;89.20
36856;DHT22;22788;51.434;6.786;2022-09-29T15:37:58;13.30;90.10
36856;DHT22;22788;51.434;6.786;2022-09-29T15:40:35;13.20;86.60
36856;DHT22;22788;51.434;6.786;2022-09-29T15:43:01;13.30;90.30
36856;DHT22;22788;51.434;6.786;2022-09-29T15:45:27;13.10;82.90
36856;DHT22;22788;51.434;6.786;2022-09-29T15:47:59;13.20;85.40
36856;DHT22;22788;51.434;6.786;2022-09-29T15:50:27;13.20;86.00
36856;DHT22;22788;51.434;6.786;2022-09-29T15:52:54;13.20;85.90
36856;DHT22;22788;51.434;6.786;2022-09-29T15:55:22;13.10;82.00
36856;DHT22;22788;51.434;6.786;2022-09-29T15:57:50;13.20;86.00
36856;DHT22;22788;51.434;6.786;2022-09-29T16:00:42;13.10;86.00
36856;DHT22;22788;51.434;6.786;2022-09-29T16:03:11;13.10;86.70
36856;DHT22;22788;51.434;6.786;2022-09-29T16:05:40;13.00;85.00